sensor_id;sensor_type;location;lat;lon;timestamp;P1;durP1;ratioP1;P2;durP2;ratioP2
46589;SDS011;32313;48.722;9.362;2024-01-30T00:01:42;25.80;;;23.20;;
46589;SDS011;32313;48.722;9.362;2024-01-30T00:04:07;25.43;;;22.93;;
46589;SDS011;32313;48.722;9.362;2024-01-30T00:06:33;25.33;;;22.77;;
46589;SDS011;32313;48.722;9.362;2024-01-30T00:08:59;25.00;;;22.57;;
46589;SDS011;32313;48.722;9.362;2024-01-30T00:11:24;27.23;;;24.63;;
46589;SDS011;32313;48.722;9.362;2024-01-30T00:13:54;25.97;;;23.27;;
46589;SDS011;32313;48.722;9.362;2024-01-30T00:16:24;25.50;;;23.00;;
46589;SDS011;32313;48.722;9.362;2024-01-30T00:18:51;25.33;;;23.03;;
46589;SDS011;32313;48.722;9.362;2024-01-30T00:21:18;25.20;;;22.70;;
46589;SDS011;32313;48.722;9.362;2024-01-30T00:23:44;27.60;;;24.70;;
46589;SDS011;32313;48.722;9.362;2024-01-30T00:26:09;24.90;;;22.43;;
46589;SDS011;32313;48.722;9.362;2024-01-30T00:28:36;26.87;;;24.13;;
46589;SDS011;32313;48.722;9.362;2024-01-30T00:31:03;26.97;;;24.47;;
46589;SDS011;32313;48.722;9.362;2024-01-30T00:33:29;25.33;;;23.03;;
46589;SDS011;32313;48.722;9.362;2024-01-30T00:35:56;25.60;;;22.90;;
46589;SDS011;32313;48.722;9.362;2024-01-30T00:38:21;30.97;;;26.20;;
46589;SDS011;32313;48.722;9.362;2024-01-30T00:40:47;33.23;;;29.17;;
46589;SDS011;32313;48.722;9.362;2024-01-30T00:43:13;39.70;;;29.50;;
46589;SDS011;32313;48.722;9.362;2024-01-30T00:45:40;39.20;;;31.47;;
46589;SDS011;32313;48.722;9.362;2024-01-30T00:48:06;35.53;;;29.43;;
46589;SDS011;32313;48.722;9.362;2024-01-30T00:50:31;37.77;;;30.73;;
46589;SDS011;32313;48.722;9.362;2024-01-30T00:52:58;33.73;;;29.00;;
46589;SDS011;32313;48.722;9.362;2024-01-30T00:55:24;35.17;;;29.00;;
46589;SDS011;32313;48.722;9.362;2024-01-30T00:57:50;34.97;;;29.93;;
46589;SDS011;32313;48.722;9.362;2024-01-30T01:00:16;32.37;;;28.60;;
46589;SDS011;32313;48.722;9.362;2024-01-30T01:02:42;33.97;;;30.13;;
46589;SDS011;32313;48.722;9.362;2024-01-30T01:05:08;32.37;;;27.67;;
46589;SDS011;32313;48.722;9.362;2024-01-30T01:07:34;30.60;;;27.03;;
46589;SDS011;32313;48.722;9.362;2024-01-30T01:10:00;29.83;;;26.70;;
46589;SDS011;32313;48.722;9.362;2024-01-30T01:12:27;30.87;;;27.50;;
46589;SDS011;32313;48.722;9.362;2024-01-30T01:14:53;30.43;;;26.63;;
46589;SDS011;32313;48.722;9.362;2024-01-30T01:17:19;28.43;;;25.57;;
46589;SDS011;32313;48.722;9.362;2024-01-30T01:19:44;28.53;;;25.70;;
46589;SDS011;32313;48.722;9.362;2024-01-30T01:22:10;28.43;;;25.77;;
46589;SDS011;32313;48.722;9.362;2024-01-30T01:24:36;29.00;;;25.73;;
46589;SDS011;32313;48.722;9.362;2024-01-30T01:27:02;31.93;;;28.50;;
46589;SDS011;32313;48.722;9.362;2024-01-30T01:29:28;29.57;;;26.43;;
46589;SDS011;32313;48.722;9.362;2024-01-30T01:31:57;29.33;;;26.17;;
46589;SDS011;32313;48.722;9.362;2024-01-30T01:34:23;28.40;;;25.60;;
46589;SDS011;32313;48.722;9.362;2024-01-30T01:36:50;27.47;;;24.73;;
46589;SDS011;32313;48.722;9.362;2024-01-30T01:39:16;31.90;;;28.57;;
46589;SDS011;32313;48.722;9.362;2024-01-30T01:41:42;29.17;;;26.07;;
46589;SDS011;32313;48.722;9.362;2024-01-30T01:44:08;27.27;;;24.33;;
46589;SDS011;32313;48.722;9.362;2024-01-30T01:46:35;30.03;;;27.00;;
46589;SDS011;32313;48.722;9.362;2024-01-30T01:49:02;29.33;;;26.17;;
46589;SDS011;32313;48.722;9.362;2024-01-30T01:51:29;28.13;;;25.43;;
46589;SDS011;32313;48.722;9.362;2024-01-30T01:53:57;28.70;;;25.87;;
46589;SDS011;32313;48.722;9.362;2024-01-30T01:56:23;27.87;;;25.37;;
46589;SDS011;32313;48.722;9.362;2024-01-30T01:58:51;27.77;;;25.23;;
46589;SDS011;32313;48.722;9.362;2024-01-30T02:01:19;29.07;;;26.07;;
46589;SDS011;32313;48.722;9.362;2024-01-30T02:03:46;28.40;;;25.53;;
46589;SDS011;32313;48.722;9.362;2024-01-30T02:06:13;27.60;;;24.90;;
46589;SDS011;32313;48.722;9.362;2024-01-30T02:08:39;30.90;;;27.80;;
46589;SDS011;32313;48.722;9.362;2024-01-30T02:11:06;29.30;;;26.47;;
46589;SDS011;32313;48.722;9.362;2024-01-30T02:13:32;28.40;;;25.50;;
46589;SDS011;32313;48.722;9.362;2024-01-30T02:15:58;28.33;;;25.23;;
46589;SDS011;32313;48.722;9.362;2024-01-30T02:18:23;29.87;;;26.77;;
46589;SDS011;32313;48.722;9.362;2024-01-30T02:20:50;27.90;;;25.17;;
46589;SDS011;32313;48.722;9.362;2024-01-30T02:23:19;28.07;;;25.20;;
46589;SDS011;32313;48.722;9.362;2024-01-30T02:25:45;28.50;;;25.60;;
46589;SDS011;32313;48.722;9.362;2024-01-30T02:28:14;28.63;;;25.47;;
46589;SDS011;32313;48.722;9.362;2024-01-30T02:30:42;34.80;;;29.27;;
46589;SDS011;32313;48.722;9.362;2024-01-30T02:33:08;33.07;;;29.47;;
46589;SDS011;32313;48.722;9.362;2024-01-30T02:35:34;28.40;;;25.67;;
46589;SDS011;32313;48.722;9.362;2024-01-30T02:38:00;30.63;;;27.43;;
46589;SDS011;32313;48.722;9.362;2024-01-30T02:40:26;27.57;;;24.67;;
46589;SDS011;32313;48.722;9.362;2024-01-30T02:42:53;28.77;;;25.67;;
46589;SDS011;32313;48.722;9.362;2024-01-30T02:45:18;27.80;;;24.73;;
46589;SDS011;32313;48.722;9.362;2024-01-30T02:47:45;28.17;;;25.47;;
46589;SDS011;32313;48.722;9.362;2024-01-30T02:50:11;29.57;;;26.50;;
46589;SDS011;32313;48.722;9.362;2024-01-30T02:52:37;27.73;;;24.60;;
46589;SDS011;32313;48.722;9.362;2024-01-30T02:55:02;29.13;;;25.27;;
46589;SDS011;32313;48.722;9.362;2024-01-30T02:57:28;28.00;;;25.10;;
46589;SDS011;32313;48.722;9.362;2024-01-30T02:59:54;26.63;;;24.03;;
46589;SDS011;32313;48.722;9.362;2024-01-30T03:02:20;27.67;;;24.87;;
46589;SDS011;32313;48.722;9.362;2024-01-30T03:04:46;27.37;;;24.67;;
46589;SDS011;32313;48.722;9.362;2024-01-30T03:07:12;29.60;;;26.47;;
46589;SDS011;32313;48.722;9.362;2024-01-30T03:09:37;27.90;;;25.17;;
46589;SDS011;32313;48.722;9.362;2024-01-30T03:12:04;30.43;;;27.13;;
46589;SDS011;32313;48.722;9.362;2024-01-30T03:14:30;28.60;;;24.40;;
46589;SDS011;32313;48.722;9.362;2024-01-30T03:16:57;30.87;;;27.50;;
46589;SDS011;32313;48.722;9.362;2024-01-30T03:19:23;30.23;;;27.07;;
46589;SDS011;32313;48.722;9.362;2024-01-30T03:21:49;28.40;;;25.50;;
46589;SDS011;32313;48.722;9.362;2024-01-30T03:24:15;32.53;;;27.83;;
46589;SDS011;32313;48.722;9.362;2024-01-30T03:26:40;28.90;;;25.60;;
46589;SDS011;32313;48.722;9.362;2024-01-30T03:29:06;30.10;;;26.90;;
46589;SDS011;32313;48.722;9.362;2024-01-30T03:31:32;31.73;;;27.87;;
46589;SDS011;32313;48.722;9.362;2024-01-30T03:33:58;31.73;;;27.97;;
46589;SDS011;32313;48.722;9.362;2024-01-30T03:36:24;33.90;;;26.53;;
46589;SDS011;32313;48.722;9.362;2024-01-30T03:38:49;28.60;;;25.63;;
46589;SDS011;32313;48.722;9.362;2024-01-30T03:41:15;36.20;;;28.27;;
46589;SDS011;32313;48.722;9.362;2024-01-30T03:43:41;31.80;;;27.03;;
46589;SDS011;32313;48.722;9.362;2024-01-30T03:46:07;34.23;;;27.93;;
46589;SDS011;32313;48.722;9.362;2024-01-30T03:48:32;29.03;;;25.90;;
46589;SDS011;32313;48.722;9.362;2024-01-30T03:50:58;30.77;;;27.00;;
46589;SDS011;32313;48.722;9.362;2024-01-30T03:53:24;30.30;;;27.03;;
46589;SDS011;32313;48.722;9.362;2024-01-30T03:55:49;29.03;;;25.93;;
46589;SDS011;32313;48.722;9.362;2024-01-30T03:58:15;30.43;;;27.20;;
46589;SDS011;32313;48.722;9.362;2024-01-30T04:00:41;30.30;;;27.03;;
46589;SDS011;32313;48.722;9.362;2024-01-30T04:03:07;30.73;;;26.20;;
46589;SDS011;32313;48.722;9.362;2024-01-30T04:05:32;33.00;;;27.60;;
46589;SDS011;32313;48.722;9.362;2024-01-30T04:07:58;31.50;;;25.43;;
46589;SDS011;32313;48.722;9.362;2024-01-30T04:10:24;32.00;;;26.33;;
46589;SDS011;32313;48.722;9.362;2024-01-30T04:12:50;32.53;;;26.83;;
46589;SDS011;32313;48.722;9.362;2024-01-30T04:15:17;35.83;;;28.80;;
46589;SDS011;32313;48.722;9.362;2024-01-30T04:17:43;33.50;;;28.20;;
46589;SDS011;32313;48.722;9.362;2024-01-30T04:20:15;35.70;;;28.23;;
46589;SDS011;32313;48.722;9.362;2024-01-30T04:22:43;34.40;;;28.20;;
46589;SDS011;32313;48.722;9.362;2024-01-30T04:25:12;31.63;;;27.90;;
46589;SDS011;32313;48.722;9.362;2024-01-30T04:27:38;35.33;;;28.13;;
46589;SDS011;32313;48.722;9.362;2024-01-30T04:30:04;35.27;;;27.43;;
46589;SDS011;32313;48.722;9.362;2024-01-30T04:32:31;32.60;;;29.00;;
46589;SDS011;32313;48.722;9.362;2024-01-30T04:34:57;36.20;;;27.93;;
46589;SDS011;32313;48.722;9.362;2024-01-30T04:37:23;32.10;;;27.70;;
46589;SDS011;32313;48.722;9.362;2024-01-30T04:39:49;36.73;;;29.73;;
46589;SDS011;32313;48.722;9.362;2024-01-30T04:42:15;34.90;;;28.63;;
46589;SDS011;32313;48.722;9.362;2024-01-30T04:44:41;37.27;;;28.80;;
46589;SDS011;32313;48.722;9.362;2024-01-30T04:47:07;33.13;;;27.13;;
46589;SDS011;32313;48.722;9.362;2024-01-30T04:49:34;31.93;;;25.80;;
46589;SDS011;32313;48.722;9.362;2024-01-30T04:52:00;33.43;;;27.93;;
46589;SDS011;32313;48.722;9.362;2024-01-30T04:54:26;34.87;;;27.80;;
46589;SDS011;32313;48.722;9.362;2024-01-30T04:56:51;34.40;;;28.93;;
46589;SDS011;32313;48.722;9.362;2024-01-30T04:59:17;33.60;;;27.03;;
46589;SDS011;32313;48.722;9.362;2024-01-30T05:01:43;38.63;;;28.60;;
46589;SDS011;32313;48.722;9.362;2024-01-30T05:04:09;37.67;;;27.50;;
46589;SDS011;32313;48.722;9.362;2024-01-30T05:06:35;30.60;;;27.33;;
46589;SDS011;32313;48.722;9.362;2024-01-30T05:09:00;30.27;;;25.30;;
46589;SDS011;32313;48.722;9.362;2024-01-30T05:11:26;32.27;;;26.40;;
46589;SDS011;32313;48.722;9.362;2024-01-30T05:13:52;32.53;;;28.97;;
46589;SDS011;32313;48.722;9.362;2024-01-30T05:16:17;33.87;;;27.47;;
46589;SDS011;32313;48.722;9.362;2024-01-30T05:18:43;31.17;;;27.77;;
46589;SDS011;32313;48.722;9.362;2024-01-30T05:21:10;29.43;;;26.23;;
46589;SDS011;32313;48.722;9.362;2024-01-30T05:23:36;34.27;;;28.33;;
46589;SDS011;32313;48.722;9.362;2024-01-30T05:26:01;31.27;;;28.00;;
46589;SDS011;32313;48.722;9.362;2024-01-30T05:28:28;30.87;;;27.57;;
46589;SDS011;32313;48.722;9.362;2024-01-30T05:30:55;30.63;;;26.80;;
46589;SDS011;32313;48.722;9.362;2024-01-30T05:33:21;31.03;;;27.73;;
46589;SDS011;32313;48.722;9.362;2024-01-30T05:35:47;31.00;;;27.80;;
46589;SDS011;32313;48.722;9.362;2024-01-30T05:38:13;29.67;;;26.63;;
46589;SDS011;32313;48.722;9.362;2024-01-30T05:40:40;31.67;;;28.50;;
46589;SDS011;32313;48.722;9.362;2024-01-30T05:43:06;30.40;;;27.30;;
46589;SDS011;32313;48.722;9.362;2024-01-30T05:45:33;32.97;;;29.57;;
46589;SDS011;32313;48.722;9.362;2024-01-30T05:48:00;34.80;;;28.80;;
46589;SDS011;32313;48.722;9.362;2024-01-30T05:50:26;33.07;;;29.73;;
46589;SDS011;32313;48.722;9.362;2024-01-30T05:52:52;32.57;;;29.37;;
46589;SDS011;32313;48.722;9.362;2024-01-30T05:55:18;34.33;;;30.07;;
46589;SDS011;32313;48.722;9.362;2024-01-30T05:57:44;34.00;;;30.40;;
46589;SDS011;32313;48.722;9.362;2024-01-30T06:00:10;31.80;;;28.33;;
46589;SDS011;32313;48.722;9.362;2024-01-30T06:02:36;35.90;;;29.33;;
46589;SDS011;32313;48.722;9.362;2024-01-30T06:05:01;34.40;;;29.93;;
46589;SDS011;32313;48.722;9.362;2024-01-30T06:07:27;33.20;;;29.60;;
46589;SDS011;32313;48.722;9.362;2024-01-30T06:09:53;31.57;;;27.80;;
46589;SDS011;32313;48.722;9.362;2024-01-30T06:12:19;28.87;;;25.93;;
46589;SDS011;32313;48.722;9.362;2024-01-30T06:14:45;31.77;;;26.93;;
46589;SDS011;32313;48.722;9.362;2024-01-30T06:17:10;31.67;;;28.20;;
46589;SDS011;32313;48.722;9.362;2024-01-30T06:19:37;31.17;;;27.47;;
46589;SDS011;32313;48.722;9.362;2024-01-30T06:22:06;31.13;;;27.73;;
46589;SDS011;32313;48.722;9.362;2024-01-30T06:24:32;30.30;;;26.97;;
46589;SDS011;32313;48.722;9.362;2024-01-30T06:26:59;34.53;;;28.53;;
46589;SDS011;32313;48.722;9.362;2024-01-30T06:29:25;32.40;;;28.07;;
46589;SDS011;32313;48.722;9.362;2024-01-30T06:31:52;34.40;;;28.27;;
46589;SDS011;32313;48.722;9.362;2024-01-30T06:34:17;37.03;;;29.40;;
46589;SDS011;32313;48.722;9.362;2024-01-30T06:36:43;39.23;;;31.60;;
46589;SDS011;32313;48.722;9.362;2024-01-30T06:39:09;39.37;;;30.97;;
46589;SDS011;32313;48.722;9.362;2024-01-30T06:41:34;34.60;;;27.57;;
46589;SDS011;32313;48.722;9.362;2024-01-30T06:44:02;36.40;;;29.67;;
46589;SDS011;32313;48.722;9.362;2024-01-30T06:46:29;32.50;;;29.03;;
46589;SDS011;32313;48.722;9.362;2024-01-30T06:48:54;30.13;;;26.90;;
46589;SDS011;32313;48.722;9.362;2024-01-30T06:51:20;36.73;;;28.27;;
46589;SDS011;32313;48.722;9.362;2024-01-30T06:53:46;34.70;;;30.97;;
46589;SDS011;32313;48.722;9.362;2024-01-30T06:56:11;34.77;;;30.80;;
46589;SDS011;32313;48.722;9.362;2024-01-30T06:58:37;34.93;;;27.93;;
46589;SDS011;32313;48.722;9.362;2024-01-30T07:01:03;36.03;;;29.17;;
46589;SDS011;32313;48.722;9.362;2024-01-30T07:03:28;38.83;;;30.77;;
46589;SDS011;32313;48.722;9.362;2024-01-30T07:05:54;36.43;;;30.87;;
46589;SDS011;32313;48.722;9.362;2024-01-30T07:08:20;35.57;;;29.13;;
46589;SDS011;32313;48.722;9.362;2024-01-30T07:10:45;38.07;;;30.53;;
46589;SDS011;32313;48.722;9.362;2024-01-30T07:13:12;33.77;;;28.63;;
46589;SDS011;32313;48.722;9.362;2024-01-30T07:15:38;32.70;;;29.10;;
46589;SDS011;32313;48.722;9.362;2024-01-30T07:18:04;33.97;;;28.57;;
46589;SDS011;32313;48.722;9.362;2024-01-30T07:20:30;38.53;;;28.60;;
46589;SDS011;32313;48.722;9.362;2024-01-30T07:22:59;37.40;;;30.13;;
46589;SDS011;32313;48.722;9.362;2024-01-30T07:25:25;38.60;;;30.80;;
46589;SDS011;32313;48.722;9.362;2024-01-30T07:27:52;36.73;;;31.80;;
46589;SDS011;32313;48.722;9.362;2024-01-30T07:30:18;32.77;;;29.27;;
46589;SDS011;32313;48.722;9.362;2024-01-30T07:32:45;37.00;;;30.17;;
46589;SDS011;32313;48.722;9.362;2024-01-30T07:35:11;32.47;;;28.57;;
46589;SDS011;32313;48.722;9.362;2024-01-30T07:37:37;42.73;;;33.13;;
46589;SDS011;32313;48.722;9.362;2024-01-30T07:40:03;36.07;;;31.03;;
46589;SDS011;32313;48.722;9.362;2024-01-30T07:42:29;41.00;;;32.40;;
46589;SDS011;32313;48.722;9.362;2024-01-30T07:44:55;40.67;;;32.73;;
46589;SDS011;32313;48.722;9.362;2024-01-30T07:47:20;44.53;;;34.67;;
46589;SDS011;32313;48.722;9.362;2024-01-30T07:49:46;37.90;;;31.30;;
46589;SDS011;32313;48.722;9.362;2024-01-30T07:52:12;37.33;;;29.90;;
46589;SDS011;32313;48.722;9.362;2024-01-30T07:54:38;44.67;;;35.40;;
46589;SDS011;32313;48.722;9.362;2024-01-30T07:57:04;41.13;;;30.87;;
46589;SDS011;32313;48.722;9.362;2024-01-30T07:59:30;43.87;;;37.63;;
46589;SDS011;32313;48.722;9.362;2024-01-30T08:01:56;44.33;;;35.70;;
46589;SDS011;32313;48.722;9.362;2024-01-30T08:04:21;46.50;;;35.37;;
46589;SDS011;32313;48.722;9.362;2024-01-30T08:06:47;45.17;;;35.07;;
46589;SDS011;32313;48.722;9.362;2024-01-30T08:09:13;45.97;;;34.90;;
46589;SDS011;32313;48.722;9.362;2024-01-30T08:11:39;51.37;;;36.37;;
46589;SDS011;32313;48.722;9.362;2024-01-30T08:14:05;45.57;;;32.90;;
46589;SDS011;32313;48.722;9.362;2024-01-30T08:16:30;52.03;;;39.63;;
46589;SDS011;32313;48.722;9.362;2024-01-30T08:18:56;45.50;;;34.43;;
46589;SDS011;32313;48.722;9.362;2024-01-30T08:21:22;55.53;;;35.97;;
46589;SDS011;32313;48.722;9.362;2024-01-30T08:23:48;63.47;;;40.23;;
46589;SDS011;32313;48.722;9.362;2024-01-30T08:26:14;55.43;;;34.37;;
46589;SDS011;32313;48.722;9.362;2024-01-30T08:28:39;43.93;;;31.53;;
46589;SDS011;32313;48.722;9.362;2024-01-30T08:31:05;46.40;;;33.07;;
46589;SDS011;32313;48.722;9.362;2024-01-30T08:33:31;47.17;;;31.13;;
46589;SDS011;32313;48.722;9.362;2024-01-30T08:35:56;43.47;;;33.30;;
46589;SDS011;32313;48.722;9.362;2024-01-30T08:38:22;36.50;;;29.90;;
46589;SDS011;32313;48.722;9.362;2024-01-30T08:40:48;42.53;;;31.83;;
46589;SDS011;32313;48.722;9.362;2024-01-30T08:43:14;42.60;;;30.73;;
46589;SDS011;32313;48.722;9.362;2024-01-30T08:45:40;37.03;;;30.37;;
46589;SDS011;32313;48.722;9.362;2024-01-30T08:48:07;34.63;;;29.90;;
46589;SDS011;32313;48.722;9.362;2024-01-30T08:50:33;37.77;;;26.87;;
46589;SDS011;32313;48.722;9.362;2024-01-30T08:52:59;38.40;;;26.90;;
46589;SDS011;32313;48.722;9.362;2024-01-30T08:55:25;31.03;;;25.27;;
46589;SDS011;32313;48.722;9.362;2024-01-30T08:57:50;33.57;;;25.10;;
46589;SDS011;32313;48.722;9.362;2024-01-30T09:00:17;33.63;;;23.83;;
46589;SDS011;32313;48.722;9.362;2024-01-30T09:02:43;24.53;;;21.90;;
46589;SDS011;32313;48.722;9.362;2024-01-30T09:05:08;24.93;;;19.90;;
46589;SDS011;32313;48.722;9.362;2024-01-30T09:07:34;20.60;;;18.27;;
46589;SDS011;32313;48.722;9.362;2024-01-30T09:10:00;30.23;;;22.97;;
46589;SDS011;32313;48.722;9.362;2024-01-30T09:12:26;23.10;;;17.27;;
46589;SDS011;32313;48.722;9.362;2024-01-30T09:14:52;21.53;;;17.70;;
46589;SDS011;32313;48.722;9.362;2024-01-30T09:17:17;21.70;;;17.57;;
46589;SDS011;32313;48.722;9.362;2024-01-30T09:19:43;22.10;;;17.43;;
46589;SDS011;32313;48.722;9.362;2024-01-30T09:22:09;21.90;;;17.90;;
46589;SDS011;32313;48.722;9.362;2024-01-30T09:24:34;20.87;;;16.90;;
46589;SDS011;32313;48.722;9.362;2024-01-30T09:27:00;19.67;;;15.77;;
46589;SDS011;32313;48.722;9.362;2024-01-30T09:29:26;19.77;;;17.00;;
46589;SDS011;32313;48.722;9.362;2024-01-30T09:31:51;17.63;;;15.73;;
46589;SDS011;32313;48.722;9.362;2024-01-30T09:34:17;17.87;;;15.77;;
46589;SDS011;32313;48.722;9.362;2024-01-30T09:36:43;20.43;;;15.63;;
46589;SDS011;32313;48.722;9.362;2024-01-30T09:39:09;20.70;;;15.83;;
46589;SDS011;32313;48.722;9.362;2024-01-30T09:41:36;17.43;;;15.30;;
46589;SDS011;32313;48.722;9.362;2024-01-30T09:44:11;19.93;;;16.60;;
46589;SDS011;32313;48.722;9.362;2024-01-30T09:46:38;21.37;;;16.10;;
46589;SDS011;32313;48.722;9.362;2024-01-30T09:49:04;19.57;;;16.83;;
46589;SDS011;32313;48.722;9.362;2024-01-30T09:51:32;24.30;;;16.07;;
46589;SDS011;32313;48.722;9.362;2024-01-30T09:53:58;18.93;;;15.27;;
46589;SDS011;32313;48.722;9.362;2024-01-30T09:56:24;19.43;;;15.10;;
46589;SDS011;32313;48.722;9.362;2024-01-30T09:58:50;18.03;;;15.90;;
46589;SDS011;32313;48.722;9.362;2024-01-30T10:01:15;16.03;;;14.10;;
46589;SDS011;32313;48.722;9.362;2024-01-30T10:03:44;15.97;;;14.37;;
46589;SDS011;32313;48.722;9.362;2024-01-30T10:06:10;16.30;;;14.60;;
46589;SDS011;32313;48.722;9.362;2024-01-30T10:08:36;16.93;;;14.57;;
46589;SDS011;32313;48.722;9.362;2024-01-30T10:11:02;15.37;;;13.70;;
46589;SDS011;32313;48.722;9.362;2024-01-30T10:13:29;14.83;;;13.00;;
46589;SDS011;32313;48.722;9.362;2024-01-30T10:15:55;16.67;;;14.87;;
46589;SDS011;32313;48.722;9.362;2024-01-30T10:18:24;17.47;;;13.57;;
46589;SDS011;32313;48.722;9.362;2024-01-30T10:20:50;15.83;;;13.33;;
46589;SDS011;32313;48.722;9.362;2024-01-30T10:23:16;15.53;;;12.93;;
46589;SDS011;32313;48.722;9.362;2024-01-30T10:25:43;17.57;;;13.50;;
46589;SDS011;32313;48.722;9.362;2024-01-30T10:28:09;19.13;;;14.43;;
46589;SDS011;32313;48.722;9.362;2024-01-30T10:30:34;14.83;;;13.33;;
46589;SDS011;32313;48.722;9.362;2024-01-30T10:33:00;17.77;;;12.93;;
46589;SDS011;32313;48.722;9.362;2024-01-30T10:35:26;16.97;;;14.70;;
46589;SDS011;32313;48.722;9.362;2024-01-30T10:37:51;14.40;;;12.87;;
46589;SDS011;32313;48.722;9.362;2024-01-30T10:40:18;15.73;;;13.93;;
46589;SDS011;32313;48.722;9.362;2024-01-30T10:42:49;18.33;;;14.07;;
46589;SDS011;32313;48.722;9.362;2024-01-30T10:45:18;16.50;;;11.70;;
46589;SDS011;32313;48.722;9.362;2024-01-30T10:47:50;13.03;;;11.83;;
46589;SDS011;32313;48.722;9.362;2024-01-30T10:50:19;13.93;;;12.43;;
46589;SDS011;32313;48.722;9.362;2024-01-30T10:52:45;14.77;;;12.80;;
46589;SDS011;32313;48.722;9.362;2024-01-30T10:55:12;13.63;;;11.83;;
46589;SDS011;32313;48.722;9.362;2024-01-30T10:57:39;12.87;;;11.50;;
46589;SDS011;32313;48.722;9.362;2024-01-30T11:00:06;13.73;;;11.70;;
46589;SDS011;32313;48.722;9.362;2024-01-30T11:02:38;12.83;;;11.30;;
46589;SDS011;32313;48.722;9.362;2024-01-30T11:05:05;14.33;;;10.83;;
46589;SDS011;32313;48.722;9.362;2024-01-30T11:07:31;13.50;;;10.80;;
46589;SDS011;32313;48.722;9.362;2024-01-30T11:12:25;14.90;;;11.27;;
46589;SDS011;32313;48.722;9.362;2024-01-30T11:15:04;13.93;;;10.90;;
46589;SDS011;32313;48.722;9.362;2024-01-30T11:17:41;14.00;;;10.67;;
46589;SDS011;32313;48.722;9.362;2024-01-30T11:20:16;17.13;;;12.07;;
46589;SDS011;32313;48.722;9.362;2024-01-30T11:22:52;13.97;;;11.63;;
46589;SDS011;32313;48.722;9.362;2024-01-30T11:25:20;17.67;;;13.30;;
46589;SDS011;32313;48.722;9.362;2024-01-30T11:27:46;15.20;;;12.50;;
46589;SDS011;32313;48.722;9.362;2024-01-30T11:30:27;14.43;;;11.90;;
46589;SDS011;32313;48.722;9.362;2024-01-30T11:33:00;12.83;;;10.60;;
46589;SDS011;32313;48.722;9.362;2024-01-30T11:35:30;14.13;;;11.10;;
46589;SDS011;32313;48.722;9.362;2024-01-30T11:37:59;13.23;;;11.93;;
46589;SDS011;32313;48.722;9.362;2024-01-30T11:40:27;13.07;;;11.67;;
46589;SDS011;32313;48.722;9.362;2024-01-30T11:42:54;14.93;;;11.60;;
46589;SDS011;32313;48.722;9.362;2024-01-30T11:45:20;14.23;;;10.90;;
46589;SDS011;32313;48.722;9.362;2024-01-30T11:47:46;14.40;;;11.20;;
46589;SDS011;32313;48.722;9.362;2024-01-30T11:50:12;13.53;;;11.73;;
46589;SDS011;32313;48.722;9.362;2024-01-30T11:52:38;11.17;;;10.07;;
46589;SDS011;32313;48.722;9.362;2024-01-30T11:55:04;17.57;;;11.53;;
46589;SDS011;32313;48.722;9.362;2024-01-30T11:57:30;15.37;;;11.43;;
46589;SDS011;32313;48.722;9.362;2024-01-30T11:59:55;19.47;;;12.90;;
46589;SDS011;32313;48.722;9.362;2024-01-30T12:02:21;15.23;;;12.27;;
46589;SDS011;32313;48.722;9.362;2024-01-30T12:04:47;17.30;;;12.47;;
46589;SDS011;32313;48.722;9.362;2024-01-30T12:07:12;15.30;;;11.50;;
46589;SDS011;32313;48.722;9.362;2024-01-30T12:09:41;17.17;;;11.80;;
46589;SDS011;32313;48.722;9.362;2024-01-30T12:12:07;15.67;;;11.77;;
46589;SDS011;32313;48.722;9.362;2024-01-30T12:14:37;14.57;;;10.90;;
46589;SDS011;32313;48.722;9.362;2024-01-30T12:17:05;16.50;;;12.47;;
46589;SDS011;32313;48.722;9.362;2024-01-30T12:19:33;14.63;;;11.23;;
46589;SDS011;32313;48.722;9.362;2024-01-30T12:21:59;16.07;;;12.17;;
46589;SDS011;32313;48.722;9.362;2024-01-30T12:24:25;13.93;;;11.77;;
46589;SDS011;32313;48.722;9.362;2024-01-30T12:26:52;13.43;;;11.33;;
46589;SDS011;32313;48.722;9.362;2024-01-30T12:29:21;15.80;;;11.90;;
46589;SDS011;32313;48.722;9.362;2024-01-30T12:31:47;17.53;;;12.10;;
46589;SDS011;32313;48.722;9.362;2024-01-30T12:34:15;15.77;;;11.60;;
46589;SDS011;32313;48.722;9.362;2024-01-30T12:36:42;17.70;;;12.10;;
46589;SDS011;32313;48.722;9.362;2024-01-30T12:39:11;16.17;;;12.37;;
46589;SDS011;32313;48.722;9.362;2024-01-30T12:41:42;15.60;;;11.97;;
46589;SDS011;32313;48.722;9.362;2024-01-30T12:44:08;14.33;;;12.20;;
46589;SDS011;32313;48.722;9.362;2024-01-30T12:46:34;15.17;;;11.13;;
46589;SDS011;32313;48.722;9.362;2024-01-30T12:49:00;14.33;;;11.40;;
46589;SDS011;32313;48.722;9.362;2024-01-30T12:51:26;15.63;;;11.27;;
46589;SDS011;32313;48.722;9.362;2024-01-30T12:53:51;15.33;;;10.60;;
46589;SDS011;32313;48.722;9.362;2024-01-30T12:56:17;16.67;;;11.10;;
46589;SDS011;32313;48.722;9.362;2024-01-30T12:58:43;13.87;;;10.30;;
46589;SDS011;32313;48.722;9.362;2024-01-30T13:01:09;11.77;;;10.30;;
46589;SDS011;32313;48.722;9.362;2024-01-30T13:03:38;15.87;;;10.97;;
46589;SDS011;32313;48.722;9.362;2024-01-30T13:06:03;12.70;;;10.53;;
46589;SDS011;32313;48.722;9.362;2024-01-30T13:08:29;12.80;;;10.57;;
46589;SDS011;32313;48.722;9.362;2024-01-30T13:10:55;14.97;;;10.53;;
46589;SDS011;32313;48.722;9.362;2024-01-30T13:13:20;11.33;;;10.13;;
46589;SDS011;32313;48.722;9.362;2024-01-30T13:15:47;14.47;;;10.60;;
46589;SDS011;32313;48.722;9.362;2024-01-30T13:18:13;15.43;;;10.60;;
46589;SDS011;32313;48.722;9.362;2024-01-30T13:20:38;12.07;;;9.67;;
46589;SDS011;32313;48.722;9.362;2024-01-30T13:23:04;12.83;;;11.03;;
46589;SDS011;32313;48.722;9.362;2024-01-30T13:25:30;14.07;;;9.87;;
46589;SDS011;32313;48.722;9.362;2024-01-30T13:27:55;17.40;;;10.93;;
46589;SDS011;32313;48.722;9.362;2024-01-30T13:30:21;15.87;;;10.47;;
46589;SDS011;32313;48.722;9.362;2024-01-30T13:32:47;15.53;;;10.30;;
46589;SDS011;32313;48.722;9.362;2024-01-30T13:35:12;12.20;;;9.83;;
46589;SDS011;32313;48.722;9.362;2024-01-30T13:37:38;13.10;;;9.83;;
46589;SDS011;32313;48.722;9.362;2024-01-30T13:40:05;15.30;;;9.07;;
46589;SDS011;32313;48.722;9.362;2024-01-30T13:42:34;11.17;;;9.10;;
46589;SDS011;32313;48.722;9.362;2024-01-30T13:45:00;14.03;;;9.87;;
46589;SDS011;32313;48.722;9.362;2024-01-30T13:47:26;12.20;;;9.03;;
46589;SDS011;32313;48.722;9.362;2024-01-30T13:49:52;12.33;;;9.70;;
46589;SDS011;32313;48.722;9.362;2024-01-30T13:52:18;12.93;;;10.20;;
46589;SDS011;32313;48.722;9.362;2024-01-30T13:54:44;10.57;;;9.47;;
46589;SDS011;32313;48.722;9.362;2024-01-30T13:57:09;10.90;;;9.20;;
46589;SDS011;32313;48.722;9.362;2024-01-30T13:59:37;14.83;;;9.87;;
46589;SDS011;32313;48.722;9.362;2024-01-30T14:02:03;10.30;;;9.30;;
46589;SDS011;32313;48.722;9.362;2024-01-30T14:04:29;11.83;;;8.97;;
46589;SDS011;32313;48.722;9.362;2024-01-30T14:06:55;14.13;;;9.57;;
46589;SDS011;32313;48.722;9.362;2024-01-30T14:09:20;9.83;;;8.63;;
46589;SDS011;32313;48.722;9.362;2024-01-30T14:11:46;10.57;;;9.40;;
46589;SDS011;32313;48.722;9.362;2024-01-30T14:14:12;13.03;;;9.17;;
46589;SDS011;32313;48.722;9.362;2024-01-30T14:16:38;14.40;;;9.97;;
46589;SDS011;32313;48.722;9.362;2024-01-30T14:19:03;10.73;;;9.13;;
46589;SDS011;32313;48.722;9.362;2024-01-30T14:21:29;13.07;;;9.20;;